Time;durP1;ratioP1;P1;durP2;ratioP2;P2;SDS_P1;SDS_P2;PMS_P1;PMS_P2;Temp;Humidity;BMP_temperature;BMP_pressure;BME280_temperature;BME280_humidity;BME280_pressure;Samples;Min_cycle;Max_cycle;Signal;HPM_P1;HPM_P2
2021/04/13 00:01:18;;;;;;;15.45;7.00;;;;;;;11.87;47.86;94009.00;5091781;28;20034;-75
2021/04/13 00:03:43;;;;;;;25.10;7.70;;;;;;;11.87;48.10;94019.69;5091664;28;20128;-75
2021/04/13 00:06:14;;;;;;;24.95;6.68;;;;;;;11.88;48.63;94016.69;5091509;28;20062;-76
2021/04/13 00:08:40;;;;;;;26.40;7.88;;;;;;;11.92;48.50;94019.53;5059425;28;20472;-76
2021/04/13 00:11:09;;;;;;;20.80;7.65;;;;;;;11.94;47.96;94028.03;5091735;28;20585;-76
2021/04/13 00:13:38;;;;;;;19.17;6.75;;;;;;;11.94;47.83;94028.03;5062355;28;20466;-76
2021/04/13 00:16:10;;;;;;;13.25;6.80;;;;;;;11.97;47.90;94027.41;5062407;28;20100;-76
2021/04/13 00:18:40;;;;;;;24.95;7.43;;;;;;;11.99;47.41;94023.31;5073273;28;20126;-76
2021/04/13 00:21:13;;;;;;;14.88;7.30;;;;;;;12.00;47.52;94018.75;5090654;28;20055;-75
2021/04/13 00:23:39;;;;;;;22.00;6.97;;;;;;;11.97;47.09;94016.72;5073126;28;20028;-76
2021/04/13 00:26:08;;;;;;;19.55;7.18;;;;;;;11.82;47.38;94029.44;5066341;28;20088;-77
2021/04/13 00:28:46;;;;;;;15.50;6.35;;;;;;;11.76;47.53;94022.66;5072951;28;20036;-77
2021/04/13 00:31:39;;;;;;;18.15;7.57;;;;;;;11.75;47.63;94033.69;5062111;28;20020;-76
2021/04/13 00:34:08;;;;;;;22.95;8.23;;;;;;;11.70;47.71;94033.84;5068857;28;20030;-77
2021/04/13 00:36:33;;;;;;;15.48;6.63;;;;;;;11.56;47.77;94034.00;5091327;28;20436;-77
2021/04/13 00:38:59;;;;;;;26.27;6.93;;;;;;;11.49;48.16;94041.69;5095194;28;20016;-77
2021/04/13 00:41:30;;;;;;;18.42;7.05;;;;;;;11.52;48.16;94036.53;5090992;28;20048;-77
2021/04/13 00:43:58;;;;;;;24.92;10.18;;;;;;;11.53;48.63;94040.75;5090790;28;20153;-76
2021/04/13 00:46:31;;;;;;;26.45;7.88;;;;;;;11.50;48.78;94035.25;5072700;28;20114;-76
2021/04/13 00:49:00;;;;;;;22.25;8.02;;;;;;;11.57;48.59;94043.59;5072494;28;20073;-76
2021/04/13 00:51:33;;;;;;;16.00;7.32;;;;;;;11.52;49.19;94044.53;5091054;28;20154;-76
2021/04/13 00:54:07;;;;;;;;;;;;;;;11.40;49.42;94047.03;5072901;28;20024;-76
2021/04/13 00:56:34;;;;;;;14.98;6.53;;;;;;;11.40;49.36;94039.03;5091046;28;19919;-75
2021/04/13 00:59:09;;;;;;;23.75;7.57;;;;;;;11.43;49.33;94041.84;5090562;28;20089;-75
2021/04/13 01:01:40;;;;;;;22.33;7.70;;;;;;;11.50;49.35;94044.06;5106793;28;20090;-75
2021/04/13 01:04:15;;;;;;;19.30;7.70;;;;;;;11.60;48.93;94041.06;5090484;28;20037;-75
2021/04/13 01:06:41;;;;;;;16.58;7.47;;;;;;;11.66;49.04;94041.69;5072526;28;20111;-74
2021/04/13 01:09:06;;;;;;;22.65;7.45;;;;;;;11.75;48.96;94039.81;5058477;28;20099;-75
2021/04/13 01:11:41;;;;;;;17.77;8.05;;;;;;;11.82;48.67;94040.13;5064029;28;20494;-75
2021/04/13 01:14:09;;;;;;;19.92;6.90;;;;;;;11.89;48.51;94047.69;5069241;28;20102;-75
2021/04/13 01:16:40;;;;;;;13.35;7.10;;;;;;;11.93;48.07;94029.91;5069559;28;20111;-75
2021/04/13 01:19:17;;;;;;;14.15;6.32;;;;;;;12.01;47.76;94034.47;5090306;28;20024;-74
2021/04/13 01:21:51;;;;;;;18.35;7.80;;;;;;;12.07;47.35;94032.41;5069454;28;20056;-75
2021/04/13 01:24:26;;;;;;;13.32;6.95;;;;;;;12.14;47.57;94034.59;5090181;28;20019;-75
2021/04/13 01:26:54;;;;;;;20.20;6.55;;;;;;;12.19;47.55;94043.22;5090312;28;20476;-75
2021/04/13 01:29:22;;;;;;;12.57;6.30;;;;;;;12.21;47.02;94041.03;5088644;28;20024;-75
2021/04/13 01:31:54;;;;;;;24.23;6.43;;;;;;;12.22;47.18;94050.59;5055419;28;20035;-75
2021/04/13 01:34:37;;;;;;;20.48;7.18;;;;;;;12.27;47.27;94051.53;5089925;28;20020;-75
2021/04/13 01:37:54;;;;;;;15.73;7.15;;;;;;;12.24;47.30;94051.06;5063506;28;20113;-75
2021/04/13 01:43:21;;;;;;;16.45;6.25;;;;;;;12.34;46.79;94052.63;5089846;28;20101;-75
2021/04/13 01:45:48;;;;;;;17.77;6.85;;;;;;;12.37;46.46;94051.19;5057884;28;20503;-75
2021/04/13 01:48:14;;;;;;;18.80;6.82;;;;;;;12.39;46.90;94051.66;5089657;28;20114;-75
2021/04/13 01:50:43;;;;;;;14.85;6.80;;;;;;;12.40;47.10;94046.00;5089933;28;20107;-75
2021/04/13 01:53:11;;;;;;;16.98;6.97;;;;;;;12.40;46.98;94051.34;5070382;28;20028;-75
2021/04/13 01:55:47;;;;;;;23.92;6.45;;;;;;;12.42;47.00;94059.81;5089979;28;20024;-75
2021/04/13 01:58:24;;;;;;;10.77;5.80;;;;;;;12.43;46.95;94055.25;5054944;28;20027;-76
2021/04/13 02:01:14;;;;;;;16.75;7.18;;;;;;;12.42;47.06;94046.47;5055860;28;20024;-76
2021/04/13 02:03:55;;;;;;;15.13;6.13;;;;;;;12.43;47.39;94055.25;5071025;28;20127;-76
2021/04/13 02:06:29;;;;;;;22.20;7.63;;;;;;;12.39;48.90;94049.75;5089679;28;20031;-76
2021/04/13 02:09:36;;;;;;;13.55;6.45;;;;;;;12.43;49.14;94055.25;5089837;28;20058;-76
2021/04/13 02:12:25;;;;;;;15.27;7.13;;;;;;;12.42;50.00;94051.81;5089743;28;20024;-77
2021/04/13 02:15:34;;;;;;;15.23;6.22;;;;;;;12.40;50.09;94053.25;5071174;28;20506;-77
2021/04/13 02:18:03;;;;;;;19.02;6.82;;;;;;;12.37;50.94;94043.16;5050741;28;20105;-77
2021/04/13 02:20:36;;;;;;;20.80;6.85;;;;;;;12.34;50.61;94044.59;5089429;28;20061;-77
2021/04/13 02:23:05;;;;;;;13.65;6.78;;;;;;;12.33;50.72;94039.56;5057531;28;20032;-76
2021/04/13 02:25:34;;;;;;;16.00;6.95;;;;;;;12.31;51.38;94036.44;5089281;28;20151;-77
2021/04/13 02:28:01;;;;;;;15.23;6.65;;;;;;;12.32;51.39;94043.34;5089324;28;20028;-77
2021/04/13 02:30:41;;;;;;;17.75;7.43;;;;;;;12.32;48.74;94043.34;5054505;28;20399;-76
2021/04/13 02:33:34;;;;;;;16.40;7.38;;;;;;;12.28;50.00;94029.84;5089562;28;20023;-77
2021/04/13 02:36:12;;;;;;;15.55;7.07;;;;;;;12.24;50.82;94035.03;5071165;28;20031;-76
2021/04/13 02:38:46;;;;;;;30.02;8.85;;;;;;;12.26;52.03;94036.63;5089303;28;20171;-76
2021/04/13 02:41:21;;;;;;;15.52;6.63;;;;;;;12.24;51.94;94039.59;5062735;28;20062;-76
2021/04/13 02:43:51;;;;;;;20.20;7.15;;;;;;;12.24;52.57;94035.03;5089153;28;20036;-77
2021/04/13 02:46:21;;;;;;;20.55;7.93;;;;;;;12.20;53.81;94038.66;5063799;28;20455;-77
2021/04/13 02:48:54;;;;;;;15.45;7.85;;;;;;;12.21;53.21;94033.00;5093009;28;20465;-76
2021/04/13 02:51:21;;;;;;;23.75;7.95;;;;;;;12.21;53.34;94027.66;5093373;28;20027;-76
2021/04/13 02:53:52;;;;;;;19.63;9.88;;;;;;;12.19;54.58;94032.53;5074795;28;20031;-76
2021/04/13 02:56:22;;;;;;;22.33;8.02;;;;;;;12.14;53.95;94034.59;5093219;28;20479;-76
2021/04/13 02:59:01;;;;;;;16.50;9.68;;;;;;;12.08;55.35;94035.88;5066190;28;20450;-76
2021/04/13 03:01:27;;;;;;;23.23;10.45;;;;;;;12.08;55.34;94046.56;5074884;28;20085;-77
2021/04/13 03:03:55;;;;;;;25.45;8.43;;;;;;;12.10;55.44;94036.34;5092838;28;20499;-77
2021/04/13 03:06:21;;;;;;;15.93;7.68;;;;;;;12.05;52.80;94031.94;5092931;28;20057;-77
2021/04/13 03:08:47;;;;;;;31.42;7.53;;;;;;;11.92;56.82;94039.03;5057849;28;20142;-76
2021/04/13 03:11:25;;;;;;;22.65;6.38;;;;;;;11.79;59.34;94032.72;5092620;28;20020;-75
2021/04/13 03:13:53;;;;;;;14.88;6.57;;;;;;;11.60;60.91;94033.06;5071632;28;20054;-76
2021/04/13 03:16:28;;;;;;;19.45;6.57;;;;;;;11.44;61.44;94030.06;5074606;28;20048;-75
2021/04/13 03:18:57;;;;;;;16.00;6.03;;;;;;;11.31;61.99;94020.31;5092391;28;20089;-75
2021/04/13 03:21:33;;;;;;;12.73;5.40;;;;;;;11.15;62.58;94021.88;5053287;28;20054;-75
2021/04/13 03:24:01;;;;;;;19.85;6.43;;;;;;;11.06;63.21;94029.09;5071308;28;20514;-75
2021/04/13 03:26:52;;;;;;;19.70;7.32;;;;;;;11.09;62.50;94012.47;5092587;28;20126;-76
2021/04/13 03:29:26;;;;;;;17.70;7.25;;;;;;;11.07;61.59;94022.66;5072143;28;20055;-76
2021/04/13 03:31:54;;;;;;;16.80;8.35;;;;;;;11.09;63.42;94023.13;5057389;28;20040;-76
2021/04/13 03:34:22;;;;;;;18.13;7.32;;;;;;;11.11;63.31;94024.38;5074124;28;20039;-76
2021/04/13 03:36:48;;;;;;;22.13;8.60;;;;;;;11.14;61.82;94023.00;5074029;28;20024;-75
2021/04/13 03:39:19;;;;;;;18.73;7.95;;;;;;;11.15;61.21;94020.00;5073996;28;20021;-76
2021/04/13 03:41:47;;;;;;;15.77;7.13;;;;;;;11.20;61.51;94019.06;5059860;28;20101;-76
2021/04/13 03:44:16;;;;;;;20.10;8.98;;;;;;;11.28;62.37;94028.19;5074073;28;20053;-76
2021/04/13 03:46:42;;;;;;;19.50;7.78;;;;;;;11.31;62.11;94025.66;5073963;28;20024;-76
2021/04/13 03:49:17;;;;;;;26.10;8.20;;;;;;;11.39;62.23;94024.88;5073646;28;20028;-76
2021/04/13 03:51:50;;;;;;;16.42;8.15;;;;;;;11.40;62.31;94023.03;5092302;28;20110;-77
2021/04/13 03:54:19;;;;;;;17.23;7.82;;;;;;;11.41;62.31;94025.34;5092000;28;20120;-76
2021/04/13 03:56:44;;;;;;;26.42;8.15;;;;;;;11.37;62.47;94029.75;5058913;28;20086;-76
2021/04/13 03:59:17;;;;;;;22.88;7.82;;;;;;;11.43;62.04;94025.03;5073307;28;20035;-76
2021/04/13 04:01:42;;;;;;;16.50;8.93;;;;;;;11.35;62.34;94029.28;5073978;28;20020;-76
2021/04/13 04:04:31;;;;;;;25.33;8.40;;;;;;;11.38;62.46;94031.34;5066503;28;20024;-75
2021/04/13 04:09:27;;;;;;;19.27;8.50;;;;;;;11.49;63.07;94026.47;5091611;28;20471;-76
2021/04/13 04:11:53;;;;;;;29.42;8.15;;;;;;;11.58;63.24;94035.25;5091599;28;20501;-75
2021/04/13 04:14:23;;;;;;;23.65;9.15;;;;;;;11.68;62.84;94036.03;5057951;28;20020;-77
2021/04/13 04:16:49;;;;;;;28.70;8.80;;;;;;;11.68;62.65;94036.81;5069262;28;20029;-76
2021/04/13 04:19:18;;;;;;;20.08;8.13;;;;;;;11.73;63.12;94031.31;5091475;28;20028;-76
2021/04/13 04:21:55;;;;;;;21.33;7.97;;;;;;;11.76;62.05;94033.34;5087450;28;20027;-75
2021/04/13 04:24:42;;;;;;;23.23;8.68;;;;;;;11.74;61.96;94042.78;5072829;28;20027;-76
2021/04/13 04:27:13;;;;;;;25.77;9.20;;;;;;;11.76;62.36;94036.03;5062070;28;20023;-76
2021/04/13 04:29:46;;;;;;;16.00;7.90;;;;;;;11.78;62.74;94041.81;5061954;28;20139;-76
2021/04/13 04:32:18;;;;;;;18.60;7.60;;;;;;;11.85;63.02;94049.38;5091121;28;20395;-75
2021/04/13 04:34:43;;;;;;;26.13;9.23;;;;;;;11.88;63.37;94047.97;5072862;28;20400;-75
2021/04/13 04:37:32;;;;;;;19.20;8.52;;;;;;;11.93;64.11;94042.50;5064855;28;20071;-75
2021/04/13 04:40:26;;;;;;;23.40;9.02;;;;;;;11.99;63.81;94049.25;5091257;28;20097;-76
2021/04/13 04:43:00;;;;;;;44.88;14.18;;;;;;;12.04;63.65;94046.41;5051566;28;20029;-76
2021/04/13 04:45:43;;;;;;;22.55;8.50;;;;;;;12.09;62.91;94042.75;5072648;28;20030;-76
2021/04/13 04:48:27;;;;;;;18.95;9.05;;;;;;;12.10;63.39;94044.34;5090578;28;20024;-78
2021/04/13 04:51:03;;;;;;;26.98;9.20;;;;;;;12.18;63.87;94044.31;5070595;28;20472;-79
2021/04/13 04:53:30;;;;;;;16.52;9.65;;;;;;;12.22;63.56;94039.13;5090509;28;20032;-78
2021/04/13 04:55:57;;;;;;;25.63;9.23;;;;;;;12.26;63.14;94037.38;5065829;28;20016;-78
2021/04/13 04:58:24;;;;;;;20.33;9.48;;;;;;;12.31;63.73;94034.53;5062585;28;20019;-78
2021/04/13 05:00:50;;;;;;;19.83;8.93;;;;;;;12.39;63.51;94046.31;5090910;28;20026;-78
2021/04/13 05:03:17;;;;;;;22.90;9.82;;;;;;;12.44;63.20;94041.56;5090571;28;20039;-78
2021/04/13 05:05:43;;;;;;;22.98;10.90;;;;;;;12.49;63.35;94037.16;5090419;28;20487;-78
2021/04/13 05:08:08;;;;;;;22.30;10.40;;;;;;;12.51;63.12;94022.34;5059220;28;20102;-77
2021/04/13 05:10:34;;;;;;;23.50;9.23;;;;;;;12.54;62.94;94032.44;5060881;28;20082;-77
2021/04/13 05:12:59;;;;;;;30.98;10.80;;;;;;;12.54;63.32;94027.09;5090468;28;20031;-77
2021/04/13 05:15:25;;;;;;;22.98;8.82;;;;;;;12.59;63.45;94018.88;5071889;28;20107;-77
2021/04/13 05:17:50;;;;;;;22.48;8.73;;;;;;;12.59;63.24;94010.84;5090207;28;20129;-77
2021/04/13 05:20:16;;;;;;;21.20;7.35;;;;;;;12.59;63.21;94000.16;5090330;28;20055;-78
2021/04/13 05:22:43;;;;;;;19.48;7.10;;;;;;;12.60;62.87;94008.97;5089944;28;20036;-75
2021/04/13 05:25:10;;;;;;;16.98;7.20;;;;;;;12.65;62.35;94012.22;5090144;28;20490;-75
2021/04/13 05:27:36;;;;;;;20.00;7.65;;;;;;;12.64;62.45;94013.34;5063559;28;20518;-75
2021/04/13 05:30:03;;;;;;;17.77;6.70;;;;;;;12.65;62.34;94009.56;5071806;28;20035;-75
2021/04/13 05:32:28;;;;;;;18.33;6.85;;;;;;;12.70;61.72;94013.16;5066071;28;20466;-75
2021/04/13 05:34:54;;;;;;;20.02;7.07;;;;;;;12.74;62.00;94008.72;5063168;28;20056;-76
2021/04/13 05:37:19;;;;;;;19.35;8.02;;;;;;;12.77;62.76;94013.44;5089692;28;20028;-76
2021/04/13 05:39:45;;;;;;;25.60;9.05;;;;;;;12.79;63.23;94014.69;5089689;28;20046;-76
2021/04/13 05:42:26;;;;;;;15.15;8.65;;;;;;;12.80;62.37;94015.47;5089882;28;20081;-78
2021/04/13 05:44:54;;;;;;;19.20;8.52;;;;;;;12.80;61.17;94010.91;5089992;28;20023;-78
2021/04/13 05:47:19;;;;;;;20.38;8.80;;;;;;;12.78;60.40;94007.78;5085805;28;20056;-75
2021/04/13 05:49:45;;;;;;;18.15;8.60;;;;;;;12.76;60.61;94004.66;5089665;28;20059;-78
2021/04/13 05:52:10;;;;;;;25.00;8.95;;;;;;;12.77;60.73;93997.41;5089113;28;20031;-77
2021/04/13 05:54:36;;;;;;;15.15;7.93;;;;;;;12.80;60.61;94002.09;5054388;28;20030;-78
2021/04/13 05:57:01;;;;;;;16.50;7.38;;;;;;;12.80;60.40;93997.53;5058474;28;20396;-77
2021/04/13 05:59:31;;;;;;;21.88;7.47;;;;;;;12.83;60.75;93988.09;5089227;28;20028;-77
2021/04/13 06:01:57;;;;;;;16.95;7.90;;;;;;;12.82;60.18;93983.81;5089574;28;20047;-77
2021/04/13 06:04:22;;;;;;;17.10;7.43;;;;;;;12.83;60.55;93986.19;5070739;28;20032;-76
2021/04/13 06:06:48;;;;;;;16.30;7.30;;;;;;;12.82;60.13;93973.13;5089606;28;20089;-77
2021/04/13 06:09:14;;;;;;;11.95;6.85;;;;;;;12.82;60.01;93978.47;5089412;28;20024;-76
2021/04/13 06:11:40;;;;;;;14.43;6.80;;;;;;;12.79;60.28;93973.78;5088831;28;20114;-77
2021/04/13 06:14:07;;;;;;;12.48;7.30;;;;;;;12.78;61.35;93982.91;5089287;28;20020;-77
2021/04/13 06:16:37;;;;;;;15.93;7.95;;;;;;;12.80;60.92;93980.69;5070754;28;20024;-77
2021/04/13 06:19:03;;;;;;;19.00;7.32;;;;;;;12.79;61.37;93963.88;5089275;28;20024;-77
2021/04/13 06:21:29;;;;;;;18.77;8.45;;;;;;;12.84;61.64;93955.66;5093189;28;20039;-75
2021/04/13 06:23:54;;;;;;;19.83;7.88;;;;;;;12.92;61.38;93950.56;5074805;28;20475;-76
2021/04/13 06:26:21;;;;;;;19.38;7.28;;;;;;;12.93;60.91;93952.16;5093207;28;20040;-75
2021/04/13 06:28:46;;;;;;;18.42;7.80;;;;;;;12.99;61.23;93935.56;5074636;28;20035;-74
2021/04/13 06:31:12;;;;;;;23.48;7.90;;;;;;;13.07;61.48;93928.59;5074743;28;20426;-74
2021/04/13 06:33:37;;;;;;;26.67;8.00;;;;;;;13.12;61.04;93922.25;5092143;28;20097;-74
2021/04/13 06:36:06;;;;;;;22.98;8.38;;;;;;;13.21;61.05;93923.00;5092659;28;20044;-72
2021/04/13 06:38:32;;;;;;;20.63;8.27;;;;;;;13.27;61.27;93921.69;5074411;28;20441;-73
2021/04/13 06:41:19;;;;;;;17.25;7.80;;;;;;;13.37;60.59;93942.72;5092603;28;20079;-72
2021/04/13 06:44:03;;;;;;;24.42;9.35;;;;;;;13.43;59.65;93944.09;5092779;28;20032;-72
2021/04/13 06:46:40;;;;;;;19.10;8.30;;;;;;;13.51;59.17;93952.34;5093269;28;20105;-73
2021/04/13 06:49:15;;;;;;;19.02;9.50;;;;;;;13.61;59.15;93951.94;5092934;28;20393;-72
2021/04/13 06:51:53;;;;;;;20.75;8.32;;;;;;;13.71;57.81;93953.44;5092883;28;20080;-72
2021/04/13 06:54:40;;;;;;;30.58;9.30;;;;;;;13.78;58.15;93951.00;5092736;28;20390;-74
2021/04/13 06:57:05;;;;;;;15.32;8.73;;;;;;;13.85;57.92;93945.88;5092769;28;20035;-73
2021/04/13 06:59:56;;;;;;;17.63;9.02;;;;;;;13.91;58.44;93944.56;5092970;28;20034;-73
2021/04/13 07:02:42;;;;;;;22.58;8.82;;;;;;;13.99;58.10;93942.91;5088461;28;20044;-72
2021/04/13 07:05:22;;;;;;;26.17;9.27;;;;;;;13.96;57.39;93935.53;5092314;28;20364;-72
2021/04/13 07:07:59;;;;;;;23.83;11.90;;;;;;;13.99;58.04;93932.19;5092531;28;20047;-72
2021/04/13 07:10:39;;;;;;;20.73;10.05;;;;;;;14.11;57.59;93926.84;5092255;28;20543;-72
2021/04/13 07:13:31;;;;;;;18.02;9.63;;;;;;;14.22;57.53;93927.19;5057903;28;20023;-71
2021/04/13 07:16:12;;;;;;;14.97;7.63;;;;;;;14.30;57.21;93922.84;5091365;28;20515;-72
2021/04/13 07:19:15;;;;;;;18.50;6.75;;;;;;;14.43;57.16;93919.03;5072262;28;20035;-72
2021/04/13 07:21:44;;;;;;;13.57;6.25;;;;;;;14.59;56.63;93911.13;5073415;28;20027;-73
2021/04/13 07:24:32;;;;;;;13.05;7.63;;;;;;;14.69;56.25;93909.91;5073038;28;20092;-72
2021/04/13 07:27:10;;;;;;;21.45;9.32;;;;;;;14.77;56.40;93911.69;5050196;28;20040;-73
2021/04/13 07:29:40;;;;;;;19.75;10.05;;;;;;;14.87;56.05;93911.22;5072848;28;20024;-72
2021/04/13 07:32:11;;;;;;;16.17;7.80;;;;;;;15.07;55.41;93904.13;5069947;28;20053;-73
2021/04/13 07:34:38;;;;;;;19.90;8.55;;;;;;;15.17;55.09;93910.94;5056175;28;20050;-73
2021/04/13 07:37:16;;;;;;;22.05;7.80;;;;;;;15.29;55.13;93915.47;5091009;28;20107;-73
2021/04/13 07:39:47;;;;;;;18.88;7.75;;;;;;;15.39;54.63;93909.63;5072863;28;20077;-72
2021/04/13 07:42:24;;;;;;;15.80;7.55;;;;;;;15.51;54.34;93911.47;5068393;28;20499;-74
2021/04/13 07:45:15;;;;;;;19.88;7.32;;;;;;;15.64;53.67;93899.53;5091531;28;20111;-72
2021/04/13 07:48:06;;;;;;;12.90;6.68;;;;;;;15.80;53.10;93900.38;5072454;28;20063;-73
2021/04/13 07:50:37;;;;;;;13.88;6.60;;;;;;;15.93;52.65;93900.31;5091273;28;20020;-72
2021/04/13 07:53:15;;;;;;;31.73;7.22;;;;;;;16.04;52.24;93904.84;5061595;28;20028;-74
2021/04/13 07:55:54;;;;;;;17.05;6.65;;;;;;;16.17;51.64;93897.47;5090961;28;20028;-73
2021/04/13 07:58:35;;;;;;;14.27;5.10;;;;;;;16.25;51.21;93895.72;5072653;28;20020;-73
2021/04/13 08:01:01;;;;;;;19.52;6.13;;;;;;;16.33;50.46;93899.38;5090131;28;20051;-73
2021/04/13 08:03:32;;;;;;;12.18;5.00;;;;;;;16.32;50.68;93900.50;5090871;28;20032;-74
2021/04/13 08:06:01;;;;;;;12.95;5.35;;;;;;;16.41;50.24;93890.34;5090732;28;20031;-74
2021/04/13 08:08:35;;;;;;;22.13;5.95;;;;;;;16.44;49.78;93898.50;5090770;28;20061;-75
2021/04/13 08:11:20;;;;;;;19.60;5.78;;;;;;;16.50;49.61;93890.94;5063917;28;20048;-75
2021/04/13 08:13:51;;;;;;;20.15;6.25;;;;;;;16.51;49.16;93897.88;5065207;28;20028;-74
2021/04/13 08:16:30;;;;;;;18.27;6.38;;;;;;;16.65;48.47;93897.44;5058379;28;20040;-77
2021/04/13 08:19:23;;;;;;;18.20;5.63;;;;;;;16.57;48.46;93891.09;5090951;28;20522;-74
2021/04/13 08:22:07;;;;;;;13.48;4.53;;;;;;;16.63;46.64;93900.47;5067848;28;20037;-74
2021/04/13 08:24:37;;;;;;;15.00;4.28;;;;;;;16.69;46.20;93898.28;5090529;28;20089;-75
2021/04/13 08:27:09;;;;;;;24.73;5.25;;;;;;;16.69;47.42;93900.19;5072338;28;20115;-75
2021/04/13 08:30:26;;;;;;;27.10;5.60;;;;;;;16.69;47.46;93903.69;5072169;28;20024;-77
2021/04/13 08:33:05;;;;;;;19.15;4.97;;;;;;;16.84;46.76;93897.50;5045161;28;20353;-76
2021/04/13 08:35:35;;;;;;;20.55;6.07;;;;;;;16.98;46.54;93891.63;5071902;28;20567;-75
2021/04/13 08:38:40;;;;;;;23.13;5.90;;;;;;;16.94;46.09;93892.69;5071828;28;20111;-75
2021/04/13 08:41:17;;;;;;;17.90;5.50;;;;;;;16.94;47.21;93888.09;5089923;28;20054;-72
2021/04/13 08:43:45;;;;;;;15.40;5.55;;;;;;;16.97;46.60;93881.22;5066424;28;20035;-74
2021/04/13 08:46:41;;;;;;;17.77;4.97;;;;;;;16.99;46.45;93884.34;5071772;28;20023;-78
2021/04/13 08:49:33;;;;;;;21.35;5.25;;;;;;;17.13;45.64;93879.25;5071305;28;20032;-78
2021/04/13 08:52:19;;;;;;;15.35;5.22;;;;;;;17.24;45.55;93877.56;5071718;28;20031;-74
2021/04/13 08:54:48;;;;;;;16.80;6.20;;;;;;;17.34;44.34;93876.22;5054984;28;20403;-75
2021/04/13 08:57:37;;;;;;;18.77;8.30;;;;;;;17.38;44.96;93878.97;5089499;28;20039;-75
2021/04/13 09:00:32;;;;;;;16.33;5.88;;;;;;;17.41;44.09;93879.03;5089762;28;20028;-75
2021/04/13 09:03:00;;;;;;;13.05;4.75;;;;;;;17.42;43.96;93875.22;5067440;28;20040;-74
2021/04/13 09:05:29;;;;;;;20.75;4.65;;;;;;;17.38;43.88;93874.38;5086814;28;20028;-76
2021/04/13 09:08:03;;;;;;;23.33;5.28;;;;;;;17.35;43.77;93875.06;5071194;28;20410;-77
2021/04/13 09:10:34;;;;;;;11.38;3.80;;;;;;;17.34;44.11;93875.41;5064265;28;20020;-75
2021/04/13 09:13:02;;;;;;;25.63;6.10;;;;;;;17.29;43.98;93876.50;5070898;28;20027;-77
2021/04/13 09:15:32;;;;;;;23.75;4.25;;;;;;;17.22;43.87;93870.97;5063980;28;20025;-74
2021/04/13 09:18:12;;;;;;;19.02;4.82;;;;;;;17.11;43.09;93864.59;5089394;28;20020;-75
2021/04/13 09:20:58;;;;;;;17.20;4.80;;;;;;;17.09;43.05;93866.84;5089185;28;20558;-76
2021/04/13 09:23:27;;;;;;;15.85;3.60;;;;;;;16.99;43.38;93870.88;5089378;28;20024;-76
2021/04/13 09:26:10;;;;;;;23.10;4.22;;;;;;;16.98;43.53;93862.03;5088934;28;20039;-76
2021/04/13 09:28:54;;;;;;;12.80;4.38;;;;;;;16.94;43.32;93866.56;5101709;28;20032;-77
2021/04/13 09:31:29;;;;;;;8.13;3.78;;;;;;;16.84;42.89;93856.34;5090095;28;20036;-78
2021/04/13 09:34:27;;;;;;;15.20;4.60;;;;;;;16.47;44.32;93853.97;5087866;28;20032;-78
2021/04/13 09:37:01;;;;;;;14.13;3.85;;;;;;;16.34;45.24;93852.50;5043716;28;20036;-79
2021/04/13 09:39:48;;;;;;;11.23;4.38;;;;;;;16.32;44.63;93857.47;5056500;28;20051;-78
2021/04/13 09:42:46;;;;;;;13.55;4.47;;;;;;;16.03;45.76;93854.88;5068524;28;20048;-77
2021/04/13 09:45:23;;;;;;;11.82;4.07;;;;;;;16.02;45.87;93856.00;5083964;28;20149;-77
2021/04/13 09:48:23;;;;;;;17.13;4.18;;;;;;;16.07;45.71;93859.56;5069796;28;20028;-78
2021/04/13 09:51:07;;;;;;;12.63;4.10;;;;;;;15.97;46.50;93853.56;5070868;28;20450;-77
2021/04/13 09:54:02;;;;;;;19.05;4.88;;;;;;;15.86;46.60;93857.13;5088987;28;20016;-77
2021/04/13 09:56:27;;;;;;;16.30;4.18;;;;;;;15.73;47.61;93859.88;5000482;28;20052;-78
2021/04/13 09:59:16;;;;;;;14.05;3.70;;;;;;;15.68;48.30;93857.44;5069490;28;20400;-78
2021/04/13 10:01:51;;;;;;;11.63;4.22;;;;;;;15.70;49.33;93863.25;5088902;28;20072;-78
2021/04/13 10:04:42;;;;;;;11.65;5.03;;;;;;;15.68;51.67;93856.66;5087878;28;20497;-75
2021/04/13 10:07:26;;;;;;;20.02;4.63;;;;;;;15.65;52.04;93847.34;5085194;28;20021;-75
2021/04/13 10:09:53;;;;;;;15.80;5.90;;;;;;;15.64;54.53;93856.56;5070141;28;20032;-77
2021/04/13 10:12:53;;;;;;;11.77;5.32;;;;;;;15.63;55.31;93860.34;5070382;28;20107;-77
2021/04/13 10:15:56;;;;;;;22.17;6.32;;;;;;;15.57;55.17;93861.72;5088866;28;20081;-77
2021/04/13 10:18:40;;;;;;;23.42;5.05;;;;;;;15.55;56.27;93853.25;5088883;28;20111;-77
2021/04/13 10:21:33;;;;;;;19.75;5.70;;;;;;;15.55;58.92;93863.97;5052134;28;20067;-77
2021/04/13 10:24:26;;;;;;;23.10;5.78;;;;;;;15.51;59.83;93863.09;5088888;28;20479;-77
2021/04/13 10:27:12;;;;;;;20.58;6.20;;;;;;;15.50;59.89;93862.34;5070277;28;20028;-77
2021/04/13 10:30:15;;;;;;;18.90;5.28;;;;;;;15.43;58.76;93854.88;5088232;28;20039;-75
2021/04/13 10:32:58;;;;;;;15.77;5.82;;;;;;;15.35;57.97;93850.44;5088669;28;20445;-75
2021/04/13 10:35:42;;;;;;;20.80;6.85;;;;;;;15.33;57.82;93841.94;5063423;28;20079;-76
2021/04/13 10:38:17;;;;;;;21.48;4.68;;;;;;;14.96;53.69;93850.16;5068036;28;20025;-74
2021/04/13 10:40:51;;;;;;;13.77;2.55;;;;;;;14.81;48.34;93853.53;5088980;28;20429;-75
2021/04/13 10:43:35;;;;;;;20.17;5.57;;;;;;;14.80;53.11;93850.06;5070891;28;20564;-73
2021/04/13 10:46:16;;;;;;;43.17;12.00;;;;;;;14.82;57.37;93849.75;5088430;28;20103;-75
2021/04/13 10:49:02;;;;;;;40.08;10.07;;;;;;;14.79;57.44;93847.72;5066545;28;20544;-75
2021/04/13 10:51:39;;;;;;;44.10;11.25;;;;;;;14.83;59.39;93846.69;5070869;28;20024;-74
2021/04/13 10:54:28;;;;;;;27.20;9.05;;;;;;;14.91;60.15;93857.66;5070410;28;20453;-75
2021/04/13 10:56:56;;;;;;;23.67;7.10;;;;;;;14.88;60.31;93839.53;5055315;28;20071;-73
2021/04/13 10:59:50;;;;;;;21.45;6.10;;;;;;;14.73;60.48;93843.72;5088847;28;20412;-74
2021/04/13 11:02:40;;;;;;;17.95;6.05;;;;;;;14.63;56.35;93842.28;5070609;28;20032;-73
2021/04/13 11:05:49;;;;;;;17.38;4.15;;;;;;;14.51;46.76;93834.22;5062302;28;20559;-76
2021/04/13 11:08:45;;;;;;;21.95;5.70;;;;;;;14.53;51.91;93822.06;5092171;28;20031;-76
2021/04/13 11:11:31;;;;;;;12.45;6.45;;;;;;;14.54;52.89;93807.53;5092466;28;20149;-75
2021/04/13 11:14:16;;;;;;;27.70;9.57;;;;;;;14.61;58.35;93813.13;5074247;28;20101;-78
2021/04/13 11:17:09;;;;;;;26.45;11.05;;;;;;;14.67;60.98;93804.84;5074059;28;20032;-75
2021/04/13 11:19:48;;;;;;;20.60;8.80;;;;;;;14.70;62.63;93804.16;5073885;28;20023;-78
2021/04/13 11:22:48;;;;;;;22.13;9.30;;;;;;;14.71;63.14;93800.34;5066676;28;20024;-72
2021/04/13 11:25:13;;;;;;;29.88;8.35;;;;;;;14.74;63.51;93802.38;5072774;28;20034;-72
2021/04/13 11:28:01;;;;;;;22.65;9.30;;;;;;;14.79;63.35;93802.88;5091538;28;20023;-73
2021/04/13 11:30:35;;;;;;;24.40;9.63;;;;;;;14.85;63.48;93806.13;5091834;28;20032;-76
2021/04/13 11:33:09;;;;;;;23.45;8.82;;;;;;;14.89;63.14;93798.19;5054590;28;20024;-75
2021/04/13 11:35:39;;;;;;;33.55;9.05;;;;;;;14.87;63.40;93792.38;5073524;28;20032;-74
2021/04/13 11:38:32;;;;;;;22.17;7.97;;;;;;;14.91;62.59;93802.06;5091774;28;20034;-76
2021/04/13 11:40:57;;;;;;;17.63;7.60;;;;;;;14.92;61.77;93800.16;5073556;28;20131;-75
2021/04/13 11:43:24;;;;;;;17.60;8.32;;;;;;;14.97;60.77;93803.38;5067407;28;20122;-76
2021/04/13 11:46:08;;;;;;;24.60;7.85;;;;;;;14.96;60.96;93807.22;5072908;28;20030;-74
2021/04/13 11:48:44;;;;;;;20.52;8.77;;;;;;;14.93;61.42;93815.16;5067763;28;20032;-73
2021/04/13 11:51:19;;;;;;;30.75;9.25;;;;;;;14.96;61.58;93812.56;5072966;28;20093;-72
2021/04/13 11:53:47;;;;;;;19.98;8.30;;;;;;;15.01;60.95;93790.06;5090740;28;20111;-73
2021/04/13 11:56:21;;;;;;;19.35;8.98;;;;;;;15.05;60.25;93794.41;5091309;28;20028;-74
2021/04/13 11:59:20;;;;;;;21.45;6.43;;;;;;;15.11;59.74;93796.84;5067306;28;20028;-73
2021/04/13 12:01:46;;;;;;;20.45;7.82;;;;;;;15.11;59.95;93776.16;5067148;28;20024;-75
2021/04/13 12:04:15;;;;;;;18.85;6.25;;;;;;;15.12;60.06;93779.63;5072545;28;20426;-73
2021/04/13 12:06:49;;;;;;;15.48;6.72;;;;;;;15.03;60.73;93761.75;5068283;28;20510;-74
2021/04/13 12:10:00;;;;;;;18.75;7.28;;;;;;;15.07;61.75;93761.88;5072316;28;20075;-72